createdAt,value
2023-05-17T00:00:54.422Z,10.50
2023-05-17T00:03:21.339Z,10.50
2023-05-17T00:05:49.560Z,10.60
2023-05-17T00:08:16.629Z,10.50
2023-05-17T00:10:43.591Z,10.50
2023-05-17T00:13:10.754Z,10.50
2023-05-17T00:15:37.676Z,10.50
2023-05-17T00:18:04.606Z,10.50
2023-05-17T00:20:31.742Z,10.50
2023-05-17T00:22:58.731Z,10.40
2023-05-17T00:25:25.680Z,10.40
2023-05-17T00:27:52.637Z,10.40
2023-05-17T00:30:19.668Z,10.40
2023-05-17T00:32:47.576Z,10.40
2023-05-17T00:35:14.902Z,10.40
2023-05-17T00:37:47.558Z,10.40
2023-05-17T00:40:16.202Z,10.50
2023-05-17T00:42:43.197Z,10.70
2023-05-17T00:45:10.801Z,10.50
2023-05-17T00:47:38.093Z,10.50
2023-05-17T00:50:06.296Z,10.40
2023-05-17T00:52:38.594Z,10.50
2023-05-17T00:55:06.387Z,10.40
2023-05-17T00:57:33.331Z,10.40
2023-05-17T01:00:01.967Z,10.40
2023-05-17T01:02:29.097Z,10.40
2023-05-17T01:04:56.061Z,10.40
2023-05-17T01:07:23.080Z,10.40
2023-05-17T01:09:50.609Z,10.40
2023-05-17T01:12:43.166Z,10.50
2023-05-17T01:15:16.408Z,10.30
2023-05-17T01:17:49.623Z,10.30
2023-05-17T01:20:22.344Z,10.30
2023-05-17T01:22:58.103Z,10.20
2023-05-17T01:25:25.022Z,10.20
2023-05-17T01:27:54.217Z,10.20
2023-05-17T01:30:22.629Z,10.10
2023-05-17T01:32:50.012Z,10.20
2023-05-17T01:35:17.035Z,10.30
2023-05-17T01:37:43.943Z,10.20
2023-05-17T01:40:11.249Z,10.20
2023-05-17T01:42:41.710Z,10.20
2023-05-17T01:45:32.498Z,10.30
2023-05-17T01:48:18.064Z,10.20
2023-05-17T01:50:48.462Z,10.30
2023-05-17T01:53:46.317Z,10.20
2023-05-17T01:56:27.147Z,10.30
2023-05-17T01:58:56.660Z,10.30
2023-05-17T02:01:28.618Z,10.30
2023-05-17T02:03:55.814Z,10.30
2023-05-17T02:06:23.117Z,10.40
2023-05-17T02:08:49.961Z,10.40
2023-05-17T02:11:17.084Z,10.50
2023-05-17T02:13:44.018Z,10.50
2023-05-17T02:16:11.099Z,10.60
2023-05-17T02:18:38.236Z,10.40
2023-05-17T02:21:06.664Z,10.40
2023-05-17T02:23:33.540Z,10.40
2023-05-17T02:26:00.634Z,10.30
2023-05-17T02:28:27.857Z,10.30
2023-05-17T02:30:56.460Z,10.20
2023-05-17T02:33:23.742Z,10.00
2023-05-17T02:35:51.650Z,10.20
2023-05-17T02:38:19.745Z,10.10
2023-05-17T02:40:46.595Z,10.10
2023-05-17T02:43:13.569Z,10.20
2023-05-17T02:45:40.549Z,10.40
2023-05-17T02:48:07.516Z,10.20
2023-05-17T02:50:34.601Z,10.30
2023-05-17T02:53:01.545Z,10.20
2023-05-17T02:55:29.991Z,10.30
2023-05-17T02:57:57.321Z,10.30
2023-05-17T03:00:24.964Z,10.40
2023-05-17T03:02:53.388Z,10.20
2023-05-17T03:05:20.339Z,10.10
2023-05-17T03:07:50.680Z,10.00
2023-05-17T03:10:18.251Z,10.10
2023-05-17T03:12:46.713Z,10.10
2023-05-17T03:15:17.503Z,10.10
2023-05-17T03:17:45.123Z,10.20
2023-05-17T03:20:13.095Z,10.30
2023-05-17T03:22:40.081Z,10.40
2023-05-17T03:25:08.616Z,10.60
2023-05-17T03:27:36.962Z,10.50
2023-05-17T03:30:05.196Z,10.80
2023-05-17T03:32:35.261Z,10.60
2023-05-17T03:35:02.420Z,10.70
2023-05-17T03:37:30.531Z,10.70
2023-05-17T03:39:57.473Z,10.70
2023-05-17T03:42:24.890Z,10.90
2023-05-17T03:44:52.577Z,10.80
2023-05-17T03:47:23.743Z,10.80
2023-05-17T03:49:51.456Z,10.80
2023-05-17T03:52:18.700Z,10.80
2023-05-17T03:54:48.067Z,10.90
2023-05-17T03:57:16.298Z,10.90
2023-05-17T03:59:43.289Z,11.00
2023-05-17T04:02:10.608Z,11.10
2023-05-17T04:04:38.250Z,11.20
2023-05-17T04:07:05.365Z,11.20
2023-05-17T04:09:35.031Z,11.40
2023-05-17T04:12:02.036Z,11.20
2023-05-17T04:14:31.110Z,11.20
2023-05-17T04:16:59.465Z,11.30
2023-05-17T04:19:26.566Z,11.30
2023-05-17T04:21:54.822Z,11.40
2023-05-17T04:24:23.945Z,11.30
2023-05-17T04:26:51.746Z,11.50
2023-05-17T04:29:23.001Z,11.40
2023-05-17T04:31:50.727Z,11.50
2023-05-17T04:34:18.213Z,11.50
2023-05-17T04:36:45.561Z,11.70
2023-05-17T04:39:12.591Z,11.70
2023-05-17T04:41:40.031Z,11.70
2023-05-17T04:44:10.671Z,11.80
2023-05-17T04:46:37.712Z,11.80
2023-05-17T04:49:04.808Z,11.80
2023-05-17T04:51:31.941Z,11.90
2023-05-17T04:54:01.053Z,11.90
2023-05-17T04:56:29.855Z,11.90
2023-05-17T04:58:57.404Z,11.90
2023-05-17T05:01:24.361Z,11.90
2023-05-17T05:03:52.081Z,11.90
2023-05-17T05:06:19.034Z,12.00
2023-05-17T05:08:46.810Z,12.00
2023-05-17T05:11:13.715Z,12.00
2023-05-17T05:13:41.775Z,12.00
2023-05-17T05:16:08.966Z,12.10
2023-05-17T05:18:37.189Z,12.30
2023-05-17T05:21:04.257Z,12.20
2023-05-17T05:23:31.688Z,12.30
2023-05-17T05:25:59.096Z,12.40
2023-05-17T05:28:26.042Z,12.50
2023-05-17T05:31:00.896Z,12.60
2023-05-17T05:33:34.223Z,12.70
2023-05-17T05:36:02.077Z,12.80
2023-05-17T05:38:28.970Z,12.70
2023-05-17T05:40:55.908Z,12.80
2023-05-17T05:43:22.898Z,12.80
2023-05-17T05:45:50.098Z,12.80
2023-05-17T05:48:16.992Z,12.90
2023-05-17T05:50:44.878Z,12.90
2023-05-17T05:53:18.657Z,12.90
2023-05-17T05:55:52.298Z,13.00
2023-05-17T05:58:20.153Z,12.90
2023-05-17T06:00:47.883Z,12.80
2023-05-17T06:03:16.475Z,12.80
2023-05-17T06:05:43.729Z,12.90
2023-05-17T06:08:10.770Z,13.00
2023-05-17T06:10:37.625Z,13.00
2023-05-17T06:13:05.505Z,13.00
2023-05-17T06:15:34.592Z,13.00
2023-05-17T06:18:01.814Z,13.00
2023-05-17T06:20:29.027Z,13.00
2023-05-17T06:22:56.113Z,13.30
2023-05-17T06:25:28.805Z,13.50
2023-05-17T06:27:55.636Z,13.70
2023-05-17T06:30:23.570Z,13.70
2023-05-17T06:32:50.508Z,13.60
2023-05-17T06:35:17.537Z,13.70
2023-05-17T06:37:47.663Z,13.70
2023-05-17T06:40:17.114Z,13.70
2023-05-17T06:42:44.643Z,13.60
2023-05-17T06:45:12.692Z,13.70
2023-05-17T06:47:39.833Z,13.90
2023-05-17T06:50:08.943Z,14.00
2023-05-17T06:52:36.364Z,14.20
2023-05-17T06:55:03.258Z,14.40
2023-05-17T06:57:30.204Z,14.40
2023-05-17T06:59:57.262Z,14.40
2023-05-17T07:02:24.264Z,14.50
2023-05-17T07:04:51.333Z,14.60
2023-05-17T07:07:19.757Z,14.80
2023-05-17T07:09:47.712Z,14.70
2023-05-17T07:12:14.567Z,14.70
2023-05-17T07:14:41.551Z,14.70
2023-05-17T07:17:09.127Z,14.80
2023-05-17T07:19:36.149Z,14.90
2023-05-17T07:22:05.871Z,15.00
2023-05-17T07:24:32.746Z,15.00
2023-05-17T07:26:59.578Z,15.10
2023-05-17T07:29:26.505Z,15.20
2023-05-17T07:31:53.399Z,15.10
2023-05-17T07:34:20.460Z,15.20
2023-05-17T07:36:47.424Z,15.40
2023-05-17T07:39:14.317Z,15.60
2023-05-17T07:41:41.383Z,15.70
2023-05-17T07:44:08.265Z,15.80
2023-05-17T07:46:36.926Z,15.80
2023-05-17T07:49:03.938Z,15.60
2023-05-17T07:51:31.626Z,15.50
2023-05-17T07:53:58.906Z,15.50
2023-05-17T07:56:25.935Z,15.50
2023-05-17T07:58:52.758Z,15.50
2023-05-17T08:01:21.017Z,15.70
2023-05-17T08:03:48.289Z,15.90
2023-05-17T08:06:18.128Z,16.10
2023-05-17T08:08:45.278Z,16.40
2023-05-17T08:11:13.510Z,16.40
2023-05-17T08:13:40.536Z,16.40
2023-05-17T08:16:14.349Z,16.60
2023-05-17T08:18:43.197Z,16.80
2023-05-17T08:21:11.455Z,17.00
2023-05-17T08:23:38.836Z,17.10
2023-05-17T08:26:05.831Z,17.10
2023-05-17T08:28:32.936Z,17.30
2023-05-17T08:31:00.029Z,17.40
2023-05-17T08:33:27.706Z,17.30
2023-05-17T08:35:55.440Z,17.40
2023-05-17T08:38:22.638Z,17.10
2023-05-17T08:40:56.257Z,16.80
2023-05-17T08:43:25.990Z,16.90
2023-05-17T08:45:57.521Z,16.80
2023-05-17T08:48:26.441Z,16.70
2023-05-17T08:50:55.725Z,16.90
2023-05-17T08:53:23.550Z,17.10
2023-05-17T08:55:51.541Z,17.00
2023-05-17T08:58:21.344Z,16.90
2023-05-17T09:00:50.271Z,16.90
2023-05-17T09:03:19.267Z,17.10
2023-05-17T09:05:53.732Z,17.10
2023-05-17T09:08:22.584Z,17.10
2023-05-17T09:10:49.940Z,17.40
2023-05-17T09:13:20.089Z,17.50
2023-05-17T09:15:49.902Z,17.60
2023-05-17T09:18:19.423Z,17.50
2023-05-17T09:20:55.581Z,17.50
2023-05-17T09:23:23.299Z,17.50
2023-05-17T09:25:50.252Z,17.70
2023-05-17T09:28:20.553Z,17.80
2023-05-17T09:30:49.321Z,18.00
2023-05-17T09:33:18.626Z,18.20
2023-05-17T09:35:46.109Z,18.20
2023-05-17T09:38:14.727Z,18.20
2023-05-17T09:40:43.626Z,18.30
2023-05-17T09:43:11.963Z,18.30
2023-05-17T09:45:39.444Z,18.10
2023-05-17T09:48:16.646Z,17.60
2023-05-17T09:50:51.435Z,17.30
2023-05-17T09:53:42.232Z,17.00
2023-05-17T09:56:10.789Z,17.00
2023-05-17T09:58:38.016Z,17.10
2023-05-17T10:01:07.525Z,17.20
2023-05-17T10:03:36.810Z,17.20
2023-05-17T10:06:09.845Z,17.40
2023-05-17T10:08:43.304Z,17.40
2023-05-17T10:11:11.056Z,17.60
2023-05-17T10:13:47.419Z,17.80
2023-05-17T10:16:15.832Z,17.80
2023-05-17T10:18:43.893Z,17.50
2023-05-17T10:21:11.460Z,17.30
2023-05-17T10:23:40.641Z,17.30
2023-05-17T10:26:08.656Z,17.50
2023-05-17T10:28:36.888Z,17.70
2023-05-17T10:31:07.316Z,17.80
2023-05-17T10:33:35.921Z,18.00
2023-05-17T10:36:06.558Z,18.00
2023-05-17T10:38:41.607Z,17.90
2023-05-17T10:41:13.156Z,17.70
2023-05-17T10:43:42.011Z,17.60
2023-05-17T10:46:22.368Z,17.60
2023-05-17T10:48:52.124Z,17.70
2023-05-17T10:51:24.697Z,18.00
2023-05-17T10:54:18.220Z,18.00
2023-05-17T10:56:49.320Z,17.90
2023-05-17T10:59:26.813Z,17.90
2023-05-17T11:02:04.086Z,17.80
2023-05-17T11:04:37.903Z,17.80
2023-05-17T11:07:21.938Z,17.90
2023-05-17T11:10:08.542Z,18.00
2023-05-17T11:12:44.557Z,17.90
2023-05-17T11:15:13.652Z,17.90
2023-05-17T11:17:44.108Z,17.90
2023-05-17T11:20:32.961Z,18.00
2023-05-17T11:23:05.639Z,18.10
2023-05-17T11:25:36.807Z,18.20
2023-05-17T11:28:18.036Z,18.30
2023-05-17T11:30:51.256Z,18.40
2023-05-17T11:33:29.652Z,18.50
2023-05-17T11:36:06.145Z,18.50
2023-05-17T11:38:34.277Z,18.50
2023-05-17T11:41:26.809Z,18.40
2023-05-17T11:43:55.285Z,18.60
2023-05-17T11:46:24.637Z,18.60
2023-05-17T11:48:53.613Z,18.30
2023-05-17T11:51:24.374Z,18.10
2023-05-17T11:53:55.436Z,18.10
2023-05-17T11:56:32.158Z,17.90
2023-05-17T11:59:10.079Z,17.90
2023-05-17T12:01:44.323Z,18.10
2023-05-17T12:04:11.501Z,18.20
2023-05-17T12:06:40.256Z,18.20
2023-05-17T12:09:10.870Z,18.10
2023-05-17T12:11:39.537Z,18.20
2023-05-17T12:14:07.259Z,18.40
2023-05-17T12:16:40.495Z,18.50
2023-05-17T12:19:17.805Z,18.50
2023-05-17T12:21:44.763Z,18.40
2023-05-17T12:24:11.647Z,18.20
2023-05-17T12:26:46.739Z,18.20
2023-05-17T12:29:15.776Z,18.30
2023-05-17T12:31:52.686Z,18.30
2023-05-17T12:34:20.562Z,18.30
2023-05-17T12:36:48.366Z,18.30
2023-05-17T12:39:15.513Z,18.50
2023-05-17T12:41:43.635Z,18.70
2023-05-17T12:44:15.532Z,18.70
2023-05-17T12:46:43.999Z,18.80
2023-05-17T12:49:14.592Z,18.80
2023-05-17T12:51:46.109Z,18.70
2023-05-17T12:54:27.017Z,18.50
2023-05-17T12:56:54.935Z,18.50
2023-05-17T12:59:25.176Z,18.80
2023-05-17T13:01:55.579Z,19.10
2023-05-17T13:04:31.661Z,19.30
2023-05-17T13:07:00.926Z,19.40
2023-05-17T13:09:32.528Z,19.60
2023-05-17T13:12:06.750Z,19.40
2023-05-17T13:14:46.664Z,18.90
2023-05-17T13:17:36.023Z,18.80
2023-05-17T13:20:04.284Z,19.00
2023-05-17T13:22:32.386Z,19.20
2023-05-17T13:24:59.254Z,19.30
2023-05-17T13:27:26.104Z,19.80
2023-05-17T13:29:53.558Z,19.60
2023-05-17T13:32:21.422Z,20.10
2023-05-17T13:34:48.266Z,20.80
2023-05-17T13:37:15.219Z,20.20
2023-05-17T13:39:42.279Z,20.30
2023-05-17T13:42:09.840Z,19.80
2023-05-17T13:44:38.221Z,19.70
2023-05-17T13:47:05.714Z,20.40
2023-05-17T13:49:32.645Z,21.20
2023-05-17T13:52:00.572Z,20.90
2023-05-17T13:54:27.697Z,20.90
2023-05-17T13:56:55.650Z,21.10
2023-05-17T13:59:22.693Z,21.10
2023-05-17T14:01:49.712Z,21.20
2023-05-17T14:04:16.990Z,21.70
2023-05-17T14:06:44.617Z,22.30
2023-05-17T14:09:13.342Z,22.20
2023-05-17T14:11:40.351Z,21.70
2023-05-17T14:14:07.284Z,21.10
2023-05-17T14:16:34.220Z,20.00
2023-05-17T14:19:04.311Z,19.40
2023-05-17T14:21:31.762Z,19.90
2023-05-17T14:23:58.690Z,20.10
2023-05-17T14:26:26.159Z,19.70
2023-05-17T14:28:53.544Z,19.30
2023-05-17T14:31:20.471Z,19.00
2023-05-17T14:33:47.353Z,18.70
2023-05-17T14:36:14.448Z,18.40
2023-05-17T14:38:41.312Z,18.60
2023-05-17T14:41:08.236Z,20.30
2023-05-17T14:43:35.193Z,21.60
2023-05-17T14:46:02.111Z,21.60
2023-05-17T14:48:29.108Z,21.10
2023-05-17T14:50:56.007Z,20.30
2023-05-17T14:53:23.500Z,19.50
2023-05-17T14:55:51.194Z,18.90
2023-05-17T14:58:18.220Z,18.90
2023-05-17T15:00:48.561Z,18.80
2023-05-17T15:03:21.934Z,18.60
2023-05-17T15:05:58.435Z,18.20
2023-05-17T15:08:27.187Z,17.90
2023-05-17T15:10:54.569Z,18.90
2023-05-17T15:13:22.782Z,20.80
2023-05-17T15:15:49.733Z,22.30
2023-05-17T15:18:16.671Z,23.10
2023-05-17T15:20:43.533Z,23.70
2023-05-17T15:23:10.623Z,23.80
2023-05-17T15:25:37.628Z,24.30
2023-05-17T15:28:04.670Z,24.90
2023-05-17T15:30:32.420Z,25.20
2023-05-17T15:33:00.155Z,25.20
2023-05-17T15:35:27.593Z,24.90
2023-05-17T15:37:57.310Z,23.80
2023-05-17T15:40:24.924Z,24.00
2023-05-17T15:42:52.509Z,24.50
2023-05-17T15:45:22.552Z,24.80
2023-05-17T15:47:49.451Z,24.70
2023-05-17T15:50:17.695Z,24.90
2023-05-17T15:52:45.851Z,25.00
2023-05-17T15:55:13.184Z,25.60
2023-05-17T15:57:40.552Z,26.20
2023-05-17T16:00:08.110Z,26.60
2023-05-17T16:02:35.081Z,26.60
2023-05-17T16:05:03.869Z,25.60
2023-05-17T16:07:31.236Z,25.10
2023-05-17T16:09:58.359Z,23.60
2023-05-17T16:12:25.233Z,21.60
2023-05-17T16:14:52.090Z,20.30
2023-05-17T16:17:19.106Z,19.50
2023-05-17T16:19:46.110Z,19.10
2023-05-17T16:22:13.946Z,18.70
2023-05-17T16:24:41.799Z,18.40
2023-05-17T16:27:08.726Z,18.20
2023-05-17T16:29:39.826Z,18.20
2023-05-17T16:32:08.006Z,18.20
2023-05-17T16:34:35.335Z,18.30
2023-05-17T16:37:04.653Z,18.40
2023-05-17T16:39:32.383Z,18.20
2023-05-17T16:41:59.412Z,18.10
2023-05-17T16:44:26.370Z,18.00
2023-05-17T16:46:53.311Z,17.80
2023-05-17T16:49:20.393Z,17.70
2023-05-17T16:51:47.355Z,17.50
2023-05-17T16:54:14.183Z,17.50
2023-05-17T16:56:41.031Z,17.40
2023-05-17T16:59:08.080Z,17.50
2023-05-17T17:01:34.978Z,17.40
2023-05-17T17:04:03.322Z,17.30
2023-05-17T17:06:31.336Z,17.30
2023-05-17T17:08:58.244Z,17.30
2023-05-17T17:11:25.098Z,17.40
2023-05-17T17:13:52.469Z,17.60
2023-05-17T17:16:20.439Z,17.60
2023-05-17T17:18:49.487Z,17.50
2023-05-17T17:21:16.718Z,17.40
2023-05-17T17:23:44.410Z,17.30
2023-05-17T17:26:11.910Z,17.00
2023-05-17T17:28:38.854Z,16.90
2023-05-17T17:31:06.624Z,16.70
2023-05-17T17:33:34.159Z,16.60
2023-05-17T17:36:02.528Z,16.50
2023-05-17T17:38:29.435Z,16.40
2023-05-17T17:40:56.338Z,16.40
2023-05-17T17:43:23.219Z,16.30
2023-05-17T17:45:50.140Z,16.20
2023-05-17T17:48:17.071Z,16.10
2023-05-17T17:50:43.921Z,16.00
2023-05-17T17:53:10.916Z,16.00
2023-05-17T17:55:37.796Z,15.90
2023-05-17T17:58:04.905Z,15.80
2023-05-17T18:00:32.024Z,15.90
2023-05-17T18:02:59.080Z,15.80
2023-05-17T18:05:26.202Z,15.80
2023-05-17T18:07:53.204Z,15.80
2023-05-17T18:10:20.310Z,15.70
2023-05-17T18:12:47.903Z,15.60
2023-05-17T18:15:16.320Z,15.50
2023-05-17T18:17:43.403Z,15.50
2023-05-17T18:20:10.680Z,15.30
2023-05-17T18:22:37.498Z,15.30
2023-05-17T18:25:04.647Z,15.20
2023-05-17T18:27:31.546Z,15.20
2023-05-17T18:29:59.422Z,15.10
2023-05-17T18:32:26.432Z,15.00
2023-05-17T18:34:54.918Z,14.90
2023-05-17T18:37:21.933Z,14.90
2023-05-17T18:39:48.879Z,14.80
2023-05-17T18:42:15.709Z,14.70
2023-05-17T18:44:42.717Z,14.70
2023-05-17T18:47:10.480Z,14.60
2023-05-17T18:49:41.980Z,14.60
2023-05-17T18:52:08.872Z,14.50
2023-05-17T18:54:35.784Z,14.40
2023-05-17T18:57:02.644Z,14.40
2023-05-17T18:59:29.478Z,14.30
2023-05-17T19:01:56.650Z,14.20
2023-05-17T19:04:23.649Z,14.10
2023-05-17T19:06:50.667Z,14.10
2023-05-17T19:09:17.536Z,14.00
2023-05-17T19:11:45.431Z,13.80
2023-05-17T19:14:14.630Z,13.90
2023-05-17T19:16:42.048Z,13.80
2023-05-17T19:19:09.959Z,13.70
2023-05-17T19:21:37.051Z,13.70
2023-05-17T19:24:05.608Z,13.60
2023-05-17T19:26:32.560Z,13.50
2023-05-17T19:28:59.468Z,13.40
2023-05-17T19:31:27.921Z,13.40
2023-05-17T19:33:54.828Z,13.30
2023-05-17T19:36:21.803Z,13.20
2023-05-17T19:38:50.538Z,13.20
2023-05-17T19:41:20.192Z,13.10
2023-05-17T19:43:47.358Z,13.10
2023-05-17T19:46:14.509Z,13.10
2023-05-17T19:48:44.174Z,13.00
2023-05-17T19:51:11.335Z,13.00
2023-05-17T19:53:52.619Z,12.90
2023-05-17T19:56:22.576Z,12.90
2023-05-17T19:58:50.153Z,12.90
2023-05-17T20:01:17.212Z,12.80
2023-05-17T20:03:44.525Z,12.80
2023-05-17T20:06:14.287Z,12.70
2023-05-17T20:08:42.332Z,12.80
2023-05-17T20:11:10.031Z,12.70
2023-05-17T20:13:40.144Z,12.70
2023-05-17T20:16:14.698Z,12.60
2023-05-17T20:18:43.351Z,12.60
2023-05-17T20:21:12.664Z,12.60
2023-05-17T20:23:40.463Z,12.60
2023-05-17T20:26:07.377Z,12.50
2023-05-17T20:28:34.311Z,12.50
2023-05-17T20:31:01.452Z,12.40
2023-05-17T20:33:31.877Z,12.40
2023-05-17T20:35:59.258Z,12.30
2023-05-17T20:38:26.397Z,12.30
2023-05-17T20:40:53.374Z,12.30
2023-05-17T20:43:20.527Z,12.20
2023-05-17T20:45:49.724Z,12.30
2023-05-17T20:48:16.755Z,12.20
2023-05-17T20:50:43.581Z,12.20
2023-05-17T20:53:10.673Z,12.00
2023-05-17T20:55:37.673Z,12.20
2023-05-17T20:58:04.597Z,12.10
2023-05-17T21:00:32.138Z,12.20
2023-05-17T21:02:59.227Z,12.10
2023-05-17T21:05:28.472Z,12.00
2023-05-17T21:07:56.559Z,11.90
2023-05-17T21:10:23.450Z,11.90
2023-05-17T21:12:50.373Z,11.90
2023-05-17T21:15:17.557Z,11.90
2023-05-17T21:17:44.602Z,11.80
2023-05-17T21:20:11.981Z,11.90
2023-05-17T21:22:38.793Z,11.80
2023-05-17T21:25:06.167Z,11.70
2023-05-17T21:27:34.134Z,11.70
2023-05-17T21:30:01.524Z,11.70
2023-05-17T21:32:28.531Z,11.70
2023-05-17T21:34:55.578Z,11.70
2023-05-17T21:37:22.429Z,11.70
2023-05-17T21:39:49.376Z,11.60
2023-05-17T21:42:16.379Z,11.50
2023-05-17T21:44:43.282Z,11.50
2023-05-17T21:47:10.413Z,11.50
2023-05-17T21:49:37.324Z,11.40
2023-05-17T21:52:04.532Z,11.50
2023-05-17T21:54:31.493Z,11.50
2023-05-17T21:56:58.426Z,11.40
2023-05-17T21:59:25.391Z,11.40
2023-05-17T22:01:55.043Z,11.30
2023-05-17T22:04:24.111Z,11.20
2023-05-17T22:06:51.491Z,11.20
2023-05-17T22:09:19.428Z,11.20
2023-05-17T22:11:46.519Z,11.10
2023-05-17T22:14:13.482Z,11.20
2023-05-17T22:16:41.480Z,11.00
2023-05-17T22:19:08.383Z,11.20
2023-05-17T22:21:35.190Z,11.10
2023-05-17T22:24:02.067Z,11.00
2023-05-17T22:26:28.912Z,11.00
2023-05-17T22:28:56.035Z,11.00
2023-05-17T22:31:22.978Z,10.90
2023-05-17T22:33:52.033Z,10.90
2023-05-17T22:36:19.499Z,10.70
2023-05-17T22:38:46.657Z,10.90
2023-05-17T22:41:13.736Z,10.70
2023-05-17T22:43:40.611Z,10.70
2023-05-17T22:46:07.524Z,10.60
2023-05-17T22:48:38.208Z,10.60
2023-05-17T22:51:05.289Z,10.60
2023-05-17T22:53:32.153Z,10.60
2023-05-17T22:55:59.230Z,10.50
2023-05-17T22:58:26.162Z,10.50
2023-05-17T23:00:53.141Z,10.50
2023-05-17T23:03:20.538Z,10.50
2023-05-17T23:05:47.672Z,10.50
2023-05-17T23:08:17.389Z,10.50
2023-05-17T23:10:44.747Z,10.50
2023-05-17T23:13:12.647Z,10.40
2023-05-17T23:15:40.741Z,10.40
2023-05-17T23:18:08.088Z,10.20
2023-05-17T23:20:35.895Z,10.40
2023-05-17T23:23:02.845Z,10.40
2023-05-17T23:25:31.570Z,10.30
2023-05-17T23:27:58.645Z,10.30
2023-05-17T23:30:26.276Z,10.20
2023-05-17T23:32:54.965Z,10.20
2023-05-17T23:35:23.607Z,10.20
2023-05-17T23:37:50.550Z,10.20
2023-05-17T23:40:17.463Z,10.20
2023-05-17T23:42:44.371Z,10.10
2023-05-17T23:45:11.253Z,10.10
2023-05-17T23:47:40.633Z,10.00
2023-05-17T23:50:10.852Z,10.20
2023-05-17T23:52:38.982Z,10.10
2023-05-17T23:55:07.344Z,9.90
2023-05-17T23:57:35.167Z,10.00
